sensor_id;sensor_type;location;lat;lon;timestamp;P1;durP1;ratioP1;P2;durP2;ratioP2
29210;SDS011;16250;49.932;10.980;2022-09-09T00:01:02;3.40;;;1.45;;
29210;SDS011;16250;49.932;10.980;2022-09-09T00:04:12;4.22;;;1.40;;
29210;SDS011;16250;49.932;10.980;2022-09-09T00:06:31;4.57;;;1.70;;
29210;SDS011;16250;49.932;10.980;2022-09-09T00:17:25;4.03;;;1.30;;
29210;SDS011;16250;49.932;10.980;2022-09-09T00:20:03;3.35;;;1.65;;
29210;SDS011;16250;49.932;10.980;2022-09-09T00:22:46;4.55;;;1.60;;
29210;SDS011;16250;49.932;10.980;2022-09-09T00:28:20;4.95;;;1.85;;
29210;SDS011;16250;49.932;10.980;2022-09-09T00:30:49;5.10;;;1.80;;
29210;SDS011;16250;49.932;10.980;2022-09-09T00:33:16;5.68;;;1.60;;
29210;SDS011;16250;49.932;10.980;2022-09-09T00:35:49;5.63;;;1.73;;
29210;SDS011;16250;49.932;10.980;2022-09-09T00:38:19;5.65;;;1.60;;
29210;SDS011;16250;49.932;10.980;2022-09-09T00:41:00;5.13;;;1.60;;
29210;SDS011;16250;49.932;10.980;2022-09-09T00:43:37;4.10;;;1.52;;
29210;SDS011;16250;49.932;10.980;2022-09-09T00:54:27;3.67;;;1.50;;
29210;SDS011;16250;49.932;10.980;2022-09-09T00:59:52;2.65;;;1.40;;
29210;SDS011;16250;49.932;10.980;2022-09-09T01:02:53;2.95;;;1.40;;
29210;SDS011;16250;49.932;10.980;2022-09-09T01:05:34;6.45;;;1.73;;
29210;SDS011;16250;49.932;10.980;2022-09-09T01:10:59;3.25;;;1.48;;
29210;SDS011;16250;49.932;10.980;2022-09-09T01:13:28;3.30;;;1.70;;
29210;SDS011;16250;49.932;10.980;2022-09-09T01:15:56;4.93;;;1.80;;
29210;SDS011;16250;49.932;10.980;2022-09-09T01:18:32;7.13;;;1.88;;
29210;SDS011;16250;49.932;10.980;2022-09-09T01:26:38;2.90;;;1.63;;
29210;SDS011;16250;49.932;10.980;2022-09-09T01:29:09;4.03;;;1.90;;
29210;SDS011;16250;49.932;10.980;2022-09-09T01:31:52;3.92;;;1.65;;
29210;SDS011;16250;49.932;10.980;2022-09-09T01:34:18;5.68;;;1.98;;
29210;SDS011;16250;49.932;10.980;2022-09-09T01:36:45;3.83;;;1.60;;
29210;SDS011;16250;49.932;10.980;2022-09-09T01:39:21;3.53;;;1.50;;
29210;SDS011;16250;49.932;10.980;2022-09-09T01:41:46;5.25;;;1.80;;
29210;SDS011;16250;49.932;10.980;2022-09-09T01:44:12;3.55;;;1.63;;
29210;SDS011;16250;49.932;10.980;2022-09-09T01:46:38;2.47;;;1.48;;
29210;SDS011;16250;49.932;10.980;2022-09-09T01:49:04;5.85;;;2.22;;
29210;SDS011;16250;49.932;10.980;2022-09-09T01:51:32;3.47;;;1.73;;
29210;SDS011;16250;49.932;10.980;2022-09-09T01:53:58;3.20;;;1.48;;
29210;SDS011;16250;49.932;10.980;2022-09-09T01:56:35;4.20;;;1.50;;
29210;SDS011;16250;49.932;10.980;2022-09-09T01:59:24;4.75;;;1.73;;
29210;SDS011;16250;49.932;10.980;2022-09-09T02:02:03;6.63;;;1.67;;
29210;SDS011;16250;49.932;10.980;2022-09-09T02:04:59;3.38;;;2.08;;
29210;SDS011;16250;49.932;10.980;2022-09-09T02:07:47;3.83;;;1.52;;
29210;SDS011;16250;49.932;10.980;2022-09-09T02:10:16;4.85;;;1.98;;
29210;SDS011;16250;49.932;10.980;2022-09-09T02:12:57;3.58;;;1.50;;
29210;SDS011;16250;49.932;10.980;2022-09-09T02:15:34;3.90;;;1.70;;
29210;SDS011;16250;49.932;10.980;2022-09-09T02:18:07;3.40;;;1.48;;
29210;SDS011;16250;49.932;10.980;2022-09-09T02:20:36;3.72;;;1.70;;
29210;SDS011;16250;49.932;10.980;2022-09-09T02:23:04;3.15;;;1.55;;
29210;SDS011;16250;49.932;10.980;2022-09-09T02:25:32;3.22;;;1.70;;
29210;SDS011;16250;49.932;10.980;2022-09-09T02:28:00;3.85;;;1.40;;
29210;SDS011;16250;49.932;10.980;2022-09-09T02:30:30;5.82;;;1.52;;
29210;SDS011;16250;49.932;10.980;2022-09-09T02:32:57;3.15;;;1.38;;
29210;SDS011;16250;49.932;10.980;2022-09-09T02:35:24;3.72;;;1.50;;
29210;SDS011;16250;49.932;10.980;2022-09-09T02:37:53;2.75;;;1.45;;
29210;SDS011;16250;49.932;10.980;2022-09-09T02:40:24;4.75;;;1.60;;
29210;SDS011;16250;49.932;10.980;2022-09-09T02:42:49;4.30;;;1.50;;
29210;SDS011;16250;49.932;10.980;2022-09-09T02:45:16;6.68;;;1.85;;
29210;SDS011;16250;49.932;10.980;2022-09-09T02:48:05;3.47;;;1.52;;
29210;SDS011;16250;49.932;10.980;2022-09-09T02:50:37;2.25;;;1.45;;
29210;SDS011;16250;49.932;10.980;2022-09-09T02:53:22;5.28;;;1.70;;
29210;SDS011;16250;49.932;10.980;2022-09-09T02:55:59;2.13;;;1.50;;
29210;SDS011;16250;49.932;10.980;2022-09-09T02:58:30;3.85;;;1.70;;
29210;SDS011;16250;49.932;10.980;2022-09-09T03:00:56;4.10;;;1.45;;
29210;SDS011;16250;49.932;10.980;2022-09-09T03:03:22;5.03;;;1.70;;
29210;SDS011;16250;49.932;10.980;2022-09-09T03:05:48;7.10;;;1.80;;
29210;SDS011;16250;49.932;10.980;2022-09-09T03:08:14;2.28;;;1.60;;
29210;SDS011;16250;49.932;10.980;2022-09-09T03:10:40;2.88;;;1.70;;
29210;SDS011;16250;49.932;10.980;2022-09-09T03:13:06;5.10;;;1.67;;
29210;SDS011;16250;49.932;10.980;2022-09-09T03:15:32;4.20;;;1.55;;
29210;SDS011;16250;49.932;10.980;2022-09-09T03:17:58;4.47;;;1.80;;
29210;SDS011;16250;49.932;10.980;2022-09-09T03:20:25;4.97;;;2.00;;
29210;SDS011;16250;49.932;10.980;2022-09-09T03:22:52;4.15;;;1.70;;
29210;SDS011;16250;49.932;10.980;2022-09-09T03:25:18;3.65;;;1.90;;
29210;SDS011;16250;49.932;10.980;2022-09-09T03:27:44;2.30;;;1.73;;
29210;SDS011;16250;49.932;10.980;2022-09-09T03:30:09;5.25;;;2.00;;
29210;SDS011;16250;49.932;10.980;2022-09-09T03:32:35;4.25;;;1.80;;
29210;SDS011;16250;49.932;10.980;2022-09-09T03:35:01;3.90;;;2.00;;
29210;SDS011;16250;49.932;10.980;2022-09-09T03:37:27;3.63;;;1.73;;
29210;SDS011;16250;49.932;10.980;2022-09-09T03:39:52;3.53;;;2.00;;
29210;SDS011;16250;49.932;10.980;2022-09-09T03:42:19;4.63;;;1.95;;
29210;SDS011;16250;49.932;10.980;2022-09-09T03:44:46;4.38;;;2.03;;
29210;SDS011;16250;49.932;10.980;2022-09-09T03:47:15;3.20;;;1.90;;
29210;SDS011;16250;49.932;10.980;2022-09-09T03:49:45;2.65;;;1.77;;
29210;SDS011;16250;49.932;10.980;2022-09-09T03:52:11;2.13;;;1.55;;
29210;SDS011;16250;49.932;10.980;2022-09-09T03:54:36;3.90;;;1.77;;
29210;SDS011;16250;49.932;10.980;2022-09-09T03:57:02;4.45;;;1.73;;
29210;SDS011;16250;49.932;10.980;2022-09-09T03:59:29;3.95;;;1.92;;
29210;SDS011;16250;49.932;10.980;2022-09-09T04:01:55;3.53;;;1.90;;
29210;SDS011;16250;49.932;10.980;2022-09-09T04:04:22;4.00;;;1.60;;
29210;SDS011;16250;49.932;10.980;2022-09-09T04:06:47;2.78;;;1.70;;
29210;SDS011;16250;49.932;10.980;2022-09-09T04:09:13;4.18;;;1.70;;
29210;SDS011;16250;49.932;10.980;2022-09-09T04:11:39;3.60;;;1.67;;
29210;SDS011;16250;49.932;10.980;2022-09-09T04:14:05;4.20;;;1.60;;
29210;SDS011;16250;49.932;10.980;2022-09-09T04:16:31;3.40;;;1.92;;
29210;SDS011;16250;49.932;10.980;2022-09-09T04:18:57;4.55;;;1.60;;
29210;SDS011;16250;49.932;10.980;2022-09-09T04:21:25;3.03;;;1.80;;
29210;SDS011;16250;49.932;10.980;2022-09-09T04:23:51;2.88;;;1.60;;
29210;SDS011;16250;49.932;10.980;2022-09-09T04:26:16;3.35;;;1.80;;
29210;SDS011;16250;49.932;10.980;2022-09-09T04:28:42;5.45;;;1.70;;
29210;SDS011;16250;49.932;10.980;2022-09-09T04:31:09;4.75;;;1.83;;
29210;SDS011;16250;49.932;10.980;2022-09-09T04:33:39;5.57;;;1.70;;
29210;SDS011;16250;49.932;10.980;2022-09-09T04:36:05;4.07;;;1.98;;
29210;SDS011;16250;49.932;10.980;2022-09-09T04:38:30;3.60;;;1.90;;
29210;SDS011;16250;49.932;10.980;2022-09-09T04:40:56;3.92;;;1.80;;
29210;SDS011;16250;49.932;10.980;2022-09-09T04:43:22;3.92;;;1.67;;
29210;SDS011;16250;49.932;10.980;2022-09-09T04:45:48;4.50;;;1.80;;
29210;SDS011;16250;49.932;10.980;2022-09-09T04:48:14;2.40;;;1.63;;
29210;SDS011;16250;49.932;10.980;2022-09-09T04:50:40;3.38;;;1.48;;
29210;SDS011;16250;49.932;10.980;2022-09-09T04:53:06;4.95;;;1.90;;
29210;SDS011;16250;49.932;10.980;2022-09-09T04:55:32;5.55;;;1.92;;
29210;SDS011;16250;49.932;10.980;2022-09-09T04:58:06;4.30;;;1.88;;
29210;SDS011;16250;49.932;10.980;2022-09-09T05:00:33;5.45;;;1.77;;
29210;SDS011;16250;49.932;10.980;2022-09-09T05:03:04;2.22;;;1.70;;
29210;SDS011;16250;49.932;10.980;2022-09-09T05:05:30;5.43;;;2.10;;
29210;SDS011;16250;49.932;10.980;2022-09-09T05:08:06;3.83;;;1.70;;
29210;SDS011;16250;49.932;10.980;2022-09-09T05:10:34;2.88;;;1.67;;
29210;SDS011;16250;49.932;10.980;2022-09-09T05:13:02;3.92;;;1.70;;
29210;SDS011;16250;49.932;10.980;2022-09-09T05:15:29;4.13;;;1.65;;
29210;SDS011;16250;49.932;10.980;2022-09-09T05:17:58;3.65;;;1.60;;
29210;SDS011;16250;49.932;10.980;2022-09-09T05:20:24;2.78;;;1.67;;
29210;SDS011;16250;49.932;10.980;2022-09-09T05:22:52;3.63;;;1.70;;
29210;SDS011;16250;49.932;10.980;2022-09-09T05:25:19;4.35;;;1.80;;
29210;SDS011;16250;49.932;10.980;2022-09-09T05:27:44;4.43;;;1.77;;
29210;SDS011;16250;49.932;10.980;2022-09-09T05:30:10;1.63;;;1.52;;
29210;SDS011;16250;49.932;10.980;2022-09-09T05:32:36;5.60;;;1.90;;
29210;SDS011;16250;49.932;10.980;2022-09-09T05:35:02;5.40;;;2.00;;
29210;SDS011;16250;49.932;10.980;2022-09-09T05:37:28;6.53;;;2.05;;
29210;SDS011;16250;49.932;10.980;2022-09-09T05:39:55;3.08;;;1.95;;
29210;SDS011;16250;49.932;10.980;2022-09-09T05:42:20;3.60;;;1.52;;
29210;SDS011;16250;49.932;10.980;2022-09-09T05:44:46;3.78;;;1.60;;
29210;SDS011;16250;49.932;10.980;2022-09-09T05:47:11;4.57;;;1.90;;
29210;SDS011;16250;49.932;10.980;2022-09-09T05:49:37;5.75;;;2.30;;
29210;SDS011;16250;49.932;10.980;2022-09-09T05:52:03;4.65;;;1.80;;
29210;SDS011;16250;49.932;10.980;2022-09-09T05:54:28;5.30;;;1.90;;
29210;SDS011;16250;49.932;10.980;2022-09-09T05:56:54;2.85;;;1.80;;
29210;SDS011;16250;49.932;10.980;2022-09-09T05:59:20;3.15;;;1.70;;
29210;SDS011;16250;49.932;10.980;2022-09-09T06:01:48;3.35;;;1.77;;
29210;SDS011;16250;49.932;10.980;2022-09-09T06:04:13;6.80;;;1.90;;
29210;SDS011;16250;49.932;10.980;2022-09-09T06:06:40;4.53;;;1.88;;
29210;SDS011;16250;49.932;10.980;2022-09-09T06:09:07;4.53;;;1.70;;
29210;SDS011;16250;49.932;10.980;2022-09-09T06:11:35;3.92;;;1.70;;
29210;SDS011;16250;49.932;10.980;2022-09-09T06:14:03;4.68;;;1.80;;
29210;SDS011;16250;49.932;10.980;2022-09-09T06:16:29;2.95;;;1.77;;
29210;SDS011;16250;49.932;10.980;2022-09-09T06:18:57;4.75;;;1.90;;
29210;SDS011;16250;49.932;10.980;2022-09-09T06:21:24;3.70;;;1.80;;
29210;SDS011;16250;49.932;10.980;2022-09-09T06:23:51;2.88;;;1.92;;
29210;SDS011;16250;49.932;10.980;2022-09-09T06:26:21;5.35;;;2.00;;
29210;SDS011;16250;49.932;10.980;2022-09-09T06:28:52;3.33;;;1.83;;
29210;SDS011;16250;49.932;10.980;2022-09-09T06:31:20;3.33;;;1.70;;
29210;SDS011;16250;49.932;10.980;2022-09-09T06:33:47;4.25;;;1.90;;
29210;SDS011;16250;49.932;10.980;2022-09-09T06:36:21;2.53;;;1.70;;
29210;SDS011;16250;49.932;10.980;2022-09-09T06:38:48;4.43;;;1.83;;
29210;SDS011;16250;49.932;10.980;2022-09-09T06:41:15;6.00;;;1.70;;
29210;SDS011;16250;49.932;10.980;2022-09-09T06:43:42;2.97;;;1.63;;
29210;SDS011;16250;49.932;10.980;2022-09-09T06:46:11;3.05;;;1.75;;
29210;SDS011;16250;49.932;10.980;2022-09-09T06:48:42;3.08;;;1.83;;
29210;SDS011;16250;49.932;10.980;2022-09-09T06:51:13;3.22;;;1.70;;
29210;SDS011;16250;49.932;10.980;2022-09-09T06:53:41;2.45;;;1.88;;
29210;SDS011;16250;49.932;10.980;2022-09-09T06:58:53;3.28;;;1.70;;
29210;SDS011;16250;49.932;10.980;2022-09-09T07:01:21;8.32;;;4.78;;
29210;SDS011;16250;49.932;10.980;2022-09-09T07:03:49;6.78;;;1.80;;
29210;SDS011;16250;49.932;10.980;2022-09-09T07:06:20;3.72;;;2.08;;
29210;SDS011;16250;49.932;10.980;2022-09-09T07:08:50;3.50;;;1.60;;
29210;SDS011;16250;49.932;10.980;2022-09-09T07:11:17;3.63;;;1.90;;
29210;SDS011;16250;49.932;10.980;2022-09-09T07:13:43;5.53;;;1.95;;
29210;SDS011;16250;49.932;10.980;2022-09-09T07:16:10;6.80;;;1.80;;
29210;SDS011;16250;49.932;10.980;2022-09-09T07:18:37;7.22;;;2.25;;
29210;SDS011;16250;49.932;10.980;2022-09-09T07:21:04;4.10;;;1.95;;
29210;SDS011;16250;49.932;10.980;2022-09-09T07:23:31;3.88;;;1.75;;
29210;SDS011;16250;49.932;10.980;2022-09-09T07:25:57;3.70;;;1.60;;
29210;SDS011;16250;49.932;10.980;2022-09-09T07:28:24;2.60;;;1.40;;
29210;SDS011;16250;49.932;10.980;2022-09-09T07:30:55;5.05;;;1.63;;
29210;SDS011;16250;49.932;10.980;2022-09-09T07:36:01;4.70;;;1.58;;
29210;SDS011;16250;49.932;10.980;2022-09-09T07:38:38;5.78;;;1.75;;
29210;SDS011;16250;49.932;10.980;2022-09-09T07:41:08;5.18;;;1.52;;
29210;SDS011;16250;49.932;10.980;2022-09-09T07:43:37;6.55;;;1.60;;
29210;SDS011;16250;49.932;10.980;2022-09-09T07:46:04;3.53;;;1.50;;
29210;SDS011;16250;49.932;10.980;2022-09-09T07:48:30;4.38;;;1.35;;
29210;SDS011;16250;49.932;10.980;2022-09-09T07:51:06;2.33;;;1.33;;
29210;SDS011;16250;49.932;10.980;2022-09-09T07:53:37;4.15;;;1.10;;
29210;SDS011;16250;49.932;10.980;2022-09-09T07:56:07;2.35;;;1.27;;
29210;SDS011;16250;49.932;10.980;2022-09-09T07:58:37;4.90;;;1.33;;
29210;SDS011;16250;49.932;10.980;2022-09-09T08:01:24;3.20;;;1.35;;
29210;SDS011;16250;49.932;10.980;2022-09-09T08:03:57;2.97;;;1.42;;
29210;SDS011;16250;49.932;10.980;2022-09-09T08:06:24;3.10;;;1.50;;
29210;SDS011;16250;49.932;10.980;2022-09-09T08:08:51;2.53;;;1.30;;
29210;SDS011;16250;49.932;10.980;2022-09-09T08:11:17;3.75;;;1.40;;
29210;SDS011;16250;49.932;10.980;2022-09-09T08:13:43;4.18;;;1.60;;
29210;SDS011;16250;49.932;10.980;2022-09-09T08:16:17;5.00;;;1.40;;
29210;SDS011;16250;49.932;10.980;2022-09-09T08:18:51;5.22;;;1.13;;
29210;SDS011;16250;49.932;10.980;2022-09-09T08:21:27;3.13;;;1.27;;
29210;SDS011;16250;49.932;10.980;2022-09-09T08:23:55;3.95;;;1.45;;
29210;SDS011;16250;49.932;10.980;2022-09-09T08:26:22;5.05;;;1.30;;
29210;SDS011;16250;49.932;10.980;2022-09-09T08:28:50;2.80;;;1.33;;
29210;SDS011;16250;49.932;10.980;2022-09-09T08:31:59;4.13;;;1.30;;
29210;SDS011;16250;49.932;10.980;2022-09-09T08:34:07;2.50;;;1.30;;
29210;SDS011;16250;49.932;10.980;2022-09-09T08:36:36;4.70;;;1.63;;
29210;SDS011;16250;49.932;10.980;2022-09-09T08:39:04;2.85;;;1.40;;
29210;SDS011;16250;49.932;10.980;2022-09-09T08:44:52;2.53;;;1.30;;
29210;SDS011;16250;49.932;10.980;2022-09-09T08:55:20;9.52;;;1.55;;
29210;SDS011;16250;49.932;10.980;2022-09-09T08:57:47;3.80;;;1.10;;
29210;SDS011;16250;49.932;10.980;2022-09-09T09:00:16;2.80;;;1.10;;
29210;SDS011;16250;49.932;10.980;2022-09-09T09:02:46;4.43;;;0.93;;
29210;SDS011;16250;49.932;10.980;2022-09-09T09:05:30;2.85;;;1.25;;
29210;SDS011;16250;49.932;10.980;2022-09-09T09:10:56;2.50;;;1.13;;
29210;SDS011;16250;49.932;10.980;2022-09-09T09:16:41;3.67;;;1.08;;
29210;SDS011;16250;49.932;10.980;2022-09-09T09:18:59;2.38;;;0.93;;
29210;SDS011;16250;49.932;10.980;2022-09-09T09:21:33;2.80;;;1.23;;
29210;SDS011;16250;49.932;10.980;2022-09-09T09:24:03;2.85;;;1.13;;
29210;SDS011;16250;49.932;10.980;2022-09-09T09:26:40;1.95;;;0.82;;
29210;SDS011;16250;49.932;10.980;2022-09-09T09:29:10;4.38;;;1.10;;
29210;SDS011;16250;49.932;10.980;2022-09-09T09:31:45;3.40;;;1.20;;
29210;SDS011;16250;49.932;10.980;2022-09-09T09:36:58;2.40;;;1.13;;
29210;SDS011;16250;49.932;10.980;2022-09-09T09:39:30;3.97;;;1.10;;
29210;SDS011;16250;49.932;10.980;2022-09-09T09:42:07;3.03;;;1.20;;
29210;SDS011;16250;49.932;10.980;2022-09-09T09:44:39;4.28;;;1.00;;
29210;SDS011;16250;49.932;10.980;2022-09-09T09:47:12;4.00;;;1.25;;
29210;SDS011;16250;49.932;10.980;2022-09-09T09:49:38;2.85;;;1.20;;
29210;SDS011;16250;49.932;10.980;2022-09-09T09:52:04;5.03;;;1.33;;
29210;SDS011;16250;49.932;10.980;2022-09-09T09:54:37;5.05;;;1.23;;
29210;SDS011;16250;49.932;10.980;2022-09-09T09:57:08;5.82;;;1.40;;
29210;SDS011;16250;49.932;10.980;2022-09-09T09:59:36;4.53;;;0.98;;
29210;SDS011;16250;49.932;10.980;2022-09-09T10:04:38;4.85;;;1.10;;
29210;SDS011;16250;49.932;10.980;2022-09-09T10:07:10;4.10;;;1.20;;
29210;SDS011;16250;49.932;10.980;2022-09-09T10:09:47;3.80;;;1.10;;
29210;SDS011;16250;49.932;10.980;2022-09-09T10:12:25;3.05;;;1.08;;
29210;SDS011;16250;49.932;10.980;2022-09-09T10:15:24;7.18;;;1.25;;
29210;SDS011;16250;49.932;10.980;2022-09-09T10:37:25;3.85;;;1.23;;
29210;SDS011;16250;49.932;10.980;2022-09-09T10:40:26;5.93;;;1.40;;
29210;SDS011;16250;49.932;10.980;2022-09-09T10:43:12;4.57;;;1.50;;
29210;SDS011;16250;49.932;10.980;2022-09-09T10:48:23;4.78;;;1.48;;
29210;SDS011;16250;49.932;10.980;2022-09-09T10:51:06;2.63;;;1.00;;
29210;SDS011;16250;49.932;10.980;2022-09-09T10:53:37;8.52;;;1.08;;
29210;SDS011;16250;49.932;10.980;2022-09-09T10:56:25;6.47;;;1.83;;
29210;SDS011;16250;49.932;10.980;2022-09-09T10:58:56;4.32;;;1.30;;
29210;SDS011;16250;49.932;10.980;2022-09-09T11:01:37;6.07;;;1.10;;
29210;SDS011;16250;49.932;10.980;2022-09-09T11:04:17;2.33;;;1.20;;
29210;SDS011;16250;49.932;10.980;2022-09-09T11:06:49;4.38;;;1.13;;
29210;SDS011;16250;49.932;10.980;2022-09-09T11:09:19;3.40;;;0.95;;
29210;SDS011;16250;49.932;10.980;2022-09-09T11:11:53;2.67;;;1.05;;
29210;SDS011;16250;49.932;10.980;2022-09-09T11:17:04;4.13;;;1.10;;
29210;SDS011;16250;49.932;10.980;2022-09-09T11:19:37;5.05;;;1.30;;
29210;SDS011;16250;49.932;10.980;2022-09-09T11:25:10;2.67;;;1.00;;
29210;SDS011;16250;49.932;10.980;2022-09-09T11:38:39;4.97;;;1.10;;
29210;SDS011;16250;49.932;10.980;2022-09-09T11:41:12;4.13;;;1.17;;
29210;SDS011;16250;49.932;10.980;2022-09-09T11:46:09;4.38;;;1.35;;
29210;SDS011;16250;49.932;10.980;2022-09-09T11:48:38;3.83;;;1.50;;
29210;SDS011;16250;49.932;10.980;2022-09-09T11:51:25;2.97;;;1.15;;
29210;SDS011;16250;49.932;10.980;2022-09-09T11:53:59;4.85;;;0.98;;
29210;SDS011;16250;49.932;10.980;2022-09-09T11:56:31;3.05;;;1.20;;
29210;SDS011;16250;49.932;10.980;2022-09-09T12:01:54;4.78;;;1.13;;
29210;SDS011;16250;49.932;10.980;2022-09-09T12:11:52;3.63;;;1.05;;
29210;SDS011;16250;49.932;10.980;2022-09-09T12:14:37;4.95;;;0.90;;
29210;SDS011;16250;49.932;10.980;2022-09-09T12:19:44;2.03;;;0.80;;
29210;SDS011;16250;49.932;10.980;2022-09-09T12:22:20;2.67;;;0.60;;
29210;SDS011;16250;49.932;10.980;2022-09-09T12:27:33;3.10;;;0.80;;
29210;SDS011;16250;49.932;10.980;2022-09-09T12:30:15;4.95;;;0.80;;
29210;SDS011;16250;49.932;10.980;2022-09-09T12:32:42;3.95;;;0.60;;
29210;SDS011;16250;49.932;10.980;2022-09-09T12:37:38;2.05;;;0.60;;
29210;SDS011;16250;49.932;10.980;2022-09-09T12:40:24;1.92;;;0.55;;
29210;SDS011;16250;49.932;10.980;2022-09-09T12:42:55;2.00;;;0.40;;
29210;SDS011;16250;49.932;10.980;2022-09-09T12:45:24;1.77;;;0.60;;
29210;SDS011;16250;49.932;10.980;2022-09-09T12:47:53;1.05;;;0.47;;
29210;SDS011;16250;49.932;10.980;2022-09-09T12:50:22;1.52;;;0.60;;
29210;SDS011;16250;49.932;10.980;2022-09-09T12:56:03;1.15;;;0.50;;
29210;SDS011;16250;49.932;10.980;2022-09-09T12:58:44;1.60;;;0.63;;
29210;SDS011;16250;49.932;10.980;2022-09-09T13:01:26;1.10;;;0.43;;
29210;SDS011;16250;49.932;10.980;2022-09-09T13:03:53;0.70;;;0.60;;
29210;SDS011;16250;49.932;10.980;2022-09-09T13:06:32;1.02;;;0.50;;
29210;SDS011;16250;49.932;10.980;2022-09-09T13:09:14;2.05;;;0.80;;
29210;SDS011;16250;49.932;10.980;2022-09-09T13:12:19;1.55;;;0.70;;
29210;SDS011;16250;49.932;10.980;2022-09-09T13:14:48;1.33;;;0.60;;
29210;SDS011;16250;49.932;10.980;2022-09-09T13:17:28;3.03;;;0.73;;
29210;SDS011;16250;49.932;10.980;2022-09-09T13:20:17;4.93;;;0.65;;
29210;SDS011;16250;49.932;10.980;2022-09-09T13:22:44;2.63;;;0.57;;
29210;SDS011;16250;49.932;10.980;2022-09-09T13:27:36;1.77;;;0.70;;
29210;SDS011;16250;49.932;10.980;2022-09-09T13:35:47;1.52;;;0.90;;
29210;SDS011;16250;49.932;10.980;2022-09-09T13:38:20;1.58;;;0.90;;
29210;SDS011;16250;49.932;10.980;2022-09-09T13:40:56;1.58;;;0.80;;
29210;SDS011;16250;49.932;10.980;2022-09-09T13:43:36;1.90;;;0.90;;
29210;SDS011;16250;49.932;10.980;2022-09-09T13:49:00;2.83;;;0.98;;
29210;SDS011;16250;49.932;10.980;2022-09-09T13:51:39;1.73;;;0.70;;
29210;SDS011;16250;49.932;10.980;2022-09-09T13:54:11;2.33;;;0.90;;
29210;SDS011;16250;49.932;10.980;2022-09-09T13:56:41;1.45;;;0.70;;
29210;SDS011;16250;49.932;10.980;2022-09-09T13:59:12;3.03;;;1.10;;
29210;SDS011;16250;49.932;10.980;2022-09-09T14:01:39;0.98;;;0.80;;
29210;SDS011;16250;49.932;10.980;2022-09-09T14:04:06;1.67;;;1.00;;
29210;SDS011;16250;49.932;10.980;2022-09-09T14:06:32;1.42;;;0.70;;
29210;SDS011;16250;49.932;10.980;2022-09-09T14:09:00;2.60;;;0.80;;
29210;SDS011;16250;49.932;10.980;2022-09-09T14:11:25;1.73;;;0.70;;
29210;SDS011;16250;49.932;10.980;2022-09-09T14:13:51;1.67;;;0.60;;
29210;SDS011;16250;49.932;10.980;2022-09-09T14:16:17;1.35;;;0.60;;
29210;SDS011;16250;49.932;10.980;2022-09-09T14:18:46;2.13;;;0.90;;
29210;SDS011;16250;49.932;10.980;2022-09-09T14:21:11;1.33;;;0.60;;
29210;SDS011;16250;49.932;10.980;2022-09-09T14:23:37;2.40;;;1.10;;
29210;SDS011;16250;49.932;10.980;2022-09-09T14:26:04;3.15;;;1.20;;
29210;SDS011;16250;49.932;10.980;2022-09-09T14:28:31;1.45;;;1.20;;
29210;SDS011;16250;49.932;10.980;2022-09-09T14:31:01;1.77;;;1.00;;
29210;SDS011;16250;49.932;10.980;2022-09-09T14:33:28;1.80;;;0.70;;
29210;SDS011;16250;49.932;10.980;2022-09-09T14:35:57;2.50;;;0.73;;
29210;SDS011;16250;49.932;10.980;2022-09-09T14:38:25;2.67;;;0.60;;
29210;SDS011;16250;49.932;10.980;2022-09-09T14:40:53;2.40;;;0.70;;
29210;SDS011;16250;49.932;10.980;2022-09-09T14:43:19;3.03;;;0.60;;
29210;SDS011;16250;49.932;10.980;2022-09-09T14:45:45;2.33;;;0.60;;
29210;SDS011;16250;49.932;10.980;2022-09-09T14:48:13;3.30;;;0.80;;
29210;SDS011;16250;49.932;10.980;2022-09-09T14:50:39;2.38;;;0.57;;
29210;SDS011;16250;49.932;10.980;2022-09-09T14:53:07;2.22;;;0.73;;
29210;SDS011;16250;49.932;10.980;2022-09-09T14:55:33;4.18;;;1.00;;
29210;SDS011;16250;49.932;10.980;2022-09-09T14:57:59;2.00;;;0.70;;
29210;SDS011;16250;49.932;10.980;2022-09-09T15:00:29;3.38;;;0.85;;
29210;SDS011;16250;49.932;10.980;2022-09-09T15:02:54;1.60;;;0.95;;
29210;SDS011;16250;49.932;10.980;2022-09-09T15:05:20;2.22;;;0.63;;
29210;SDS011;16250;49.932;10.980;2022-09-09T15:07:46;4.07;;;0.80;;
29210;SDS011;16250;49.932;10.980;2022-09-09T15:10:13;2.55;;;0.70;;
29210;SDS011;16250;49.932;10.980;2022-09-09T15:12:39;3.63;;;1.00;;
29210;SDS011;16250;49.932;10.980;2022-09-09T15:15:06;2.10;;;1.00;;
29210;SDS011;16250;49.932;10.980;2022-09-09T15:17:32;3.92;;;1.00;;
29210;SDS011;16250;49.932;10.980;2022-09-09T15:19:58;3.58;;;1.05;;
29210;SDS011;16250;49.932;10.980;2022-09-09T15:22:24;3.67;;;0.82;;
29210;SDS011;16250;49.932;10.980;2022-09-09T15:24:49;1.30;;;0.75;;
29210;SDS011;16250;49.932;10.980;2022-09-09T15:27:16;2.05;;;0.70;;
29210;SDS011;16250;49.932;10.980;2022-09-09T15:29:41;2.63;;;0.80;;
29210;SDS011;16250;49.932;10.980;2022-09-09T15:32:09;1.80;;;0.70;;
29210;SDS011;16250;49.932;10.980;2022-09-09T15:34:34;3.20;;;0.70;;
29210;SDS011;16250;49.932;10.980;2022-09-09T15:37:00;1.83;;;0.70;;
29210;SDS011;16250;49.932;10.980;2022-09-09T15:39:25;3.78;;;1.10;;
29210;SDS011;16250;49.932;10.980;2022-09-09T15:41:51;2.75;;;1.00;;
29210;SDS011;16250;49.932;10.980;2022-09-09T15:44:16;2.80;;;0.80;;
29210;SDS011;16250;49.932;10.980;2022-09-09T15:46:50;1.70;;;0.90;;
29210;SDS011;16250;49.932;10.980;2022-09-09T15:49:27;3.22;;;1.27;;
29210;SDS011;16250;49.932;10.980;2022-09-09T15:51:57;2.75;;;0.70;;
29210;SDS011;16250;49.932;10.980;2022-09-09T15:54:27;3.17;;;0.80;;
29210;SDS011;16250;49.932;10.980;2022-09-09T15:56:56;3.42;;;1.15;;
29210;SDS011;16250;49.932;10.980;2022-09-09T15:59:24;2.65;;;0.88;;
29210;SDS011;16250;49.932;10.980;2022-09-09T16:01:50;2.25;;;0.60;;
29210;SDS011;16250;49.932;10.980;2022-09-09T16:04:17;1.83;;;0.85;;
29210;SDS011;16250;49.932;10.980;2022-09-09T16:06:48;1.73;;;0.50;;
29210;SDS011;16250;49.932;10.980;2022-09-09T16:09:18;2.05;;;0.60;;
29210;SDS011;16250;49.932;10.980;2022-09-09T16:11:45;0.98;;;0.70;;
29210;SDS011;16250;49.932;10.980;2022-09-09T16:14:12;2.65;;;0.70;;
29210;SDS011;16250;49.932;10.980;2022-09-09T16:16:38;3.15;;;0.70;;
29210;SDS011;16250;49.932;10.980;2022-09-09T16:19:04;5.47;;;0.90;;
29210;SDS011;16250;49.932;10.980;2022-09-09T16:21:36;5.07;;;1.27;;
29210;SDS011;16250;49.932;10.980;2022-09-09T16:24:05;3.65;;;1.08;;
29210;SDS011;16250;49.932;10.980;2022-09-09T16:26:32;2.53;;;0.80;;
29210;SDS011;16250;49.932;10.980;2022-09-09T16:29:00;2.28;;;0.82;;
29210;SDS011;16250;49.932;10.980;2022-09-09T16:31:28;2.38;;;0.73;;
29210;SDS011;16250;49.932;10.980;2022-09-09T16:35:11;2.25;;;0.75;;
29210;SDS011;16250;49.932;10.980;2022-09-09T16:37:36;1.38;;;0.75;;
29210;SDS011;16250;49.932;10.980;2022-09-09T16:40:02;4.28;;;0.90;;
29210;SDS011;16250;49.932;10.980;2022-09-09T16:42:28;3.00;;;0.90;;
29210;SDS011;16250;49.932;10.980;2022-09-09T16:44:53;2.42;;;0.80;;
29210;SDS011;16250;49.932;10.980;2022-09-09T16:47:19;4.13;;;0.90;;
29210;SDS011;16250;49.932;10.980;2022-09-09T16:49:44;1.77;;;0.70;;
29210;SDS011;16250;49.932;10.980;2022-09-09T16:52:10;2.63;;;0.75;;
29210;SDS011;16250;49.932;10.980;2022-09-09T16:54:36;1.70;;;0.70;;
29210;SDS011;16250;49.932;10.980;2022-09-09T16:57:01;2.60;;;0.77;;
29210;SDS011;16250;49.932;10.980;2022-09-09T16:59:27;4.20;;;0.80;;
29210;SDS011;16250;49.932;10.980;2022-09-09T17:01:52;4.38;;;0.85;;
29210;SDS011;16250;49.932;10.980;2022-09-09T17:04:19;1.63;;;0.90;;